Terminal Aerodrome Forecast
Issued by NWS

Home | Current Version | Previous Version | Text Only | Print | Product List | Glossary On
Versions: 1 2 3 4 5 6 7 8 9 10 11 12 13 14 15 16
695
FTUS43 KILX 051740 AAA
TAFCMI
TAF AMD
KCMI 051740Z 0518/0618 16008KT P6SM OVC008
     FM052100 14007KT P6SM OVC015
     FM060500 08005KT 3SM BR OVC008
     FM061100 05004KT 1 1/2SM BR VCSH OVC005
     FM061600 31009KT 4SM BR OVC005=

USA.gov is the U.S. government's official web portal to all federal, state and local government web resources and services.